createdAt,value
2023-04-25T00:00:58.564Z,7.82
2023-04-25T00:02:00.764Z,7.82
2023-04-25T00:03:02.591Z,7.82
2023-04-25T00:04:04.493Z,7.83
2023-04-25T00:05:06.424Z,7.82
2023-04-25T00:06:08.659Z,7.83
2023-04-25T00:07:10.261Z,7.82
2023-04-25T00:08:12.437Z,7.82
2023-04-25T00:09:13.861Z,7.82
2023-04-25T00:10:15.670Z,7.80
2023-04-25T00:11:17.236Z,7.80
2023-04-25T00:12:18.654Z,7.79
2023-04-25T00:13:20.595Z,7.78
2023-04-25T00:14:22.205Z,7.77
2023-04-25T00:15:23.908Z,7.74
2023-04-25T00:16:25.709Z,7.73
2023-04-25T00:17:27.833Z,7.72
2023-04-25T00:18:30.136Z,7.70
2023-04-25T00:19:31.621Z,7.68
2023-04-25T00:20:33.079Z,7.68
2023-04-25T00:21:34.907Z,7.66
2023-04-25T00:22:38.187Z,7.64
2023-04-25T00:23:39.854Z,7.62
2023-04-25T00:24:41.333Z,7.61
2023-04-25T00:25:42.766Z,7.60
2023-04-25T00:26:44.296Z,7.59
2023-04-25T00:27:45.700Z,7.58
2023-04-25T00:28:48.450Z,7.58
2023-04-25T00:29:49.998Z,7.55
2023-04-25T00:30:51.510Z,7.53
2023-04-25T00:31:52.947Z,7.53
2023-04-25T00:32:54.689Z,7.52
2023-04-25T00:33:56.225Z,7.52
2023-04-25T00:34:58.971Z,7.51
2023-04-25T00:36:00.443Z,7.50
2023-04-25T00:37:03.261Z,7.49
2023-04-25T00:38:05.392Z,7.49
2023-04-25T00:39:07.595Z,7.45
2023-04-25T00:40:09.627Z,7.44
2023-04-25T00:41:11.204Z,7.41
2023-04-25T00:42:12.865Z,7.41
2023-04-25T00:43:14.376Z,7.39
2023-04-25T00:44:18.057Z,7.38
2023-04-25T00:45:20.352Z,7.36
2023-04-25T00:46:21.824Z,7.35
2023-04-25T00:47:23.686Z,7.33
2023-04-25T00:48:25.352Z,7.32
2023-04-25T00:49:28.854Z,7.31
2023-04-25T00:50:30.426Z,7.29
2023-04-25T00:51:32.614Z,7.29
2023-04-25T00:52:34.479Z,7.26
2023-04-25T00:53:35.982Z,7.25
2023-04-25T00:54:37.678Z,7.23
2023-04-25T00:55:39.067Z,7.22
2023-04-25T00:56:41.356Z,7.22
2023-04-25T00:57:42.907Z,7.21
2023-04-25T00:58:44.686Z,7.21
2023-04-25T00:59:47.809Z,7.19
2023-04-25T01:00:51.167Z,7.19
2023-04-25T01:01:52.908Z,7.18
2023-04-25T01:02:54.909Z,7.17
2023-04-25T01:03:57.097Z,7.15
2023-04-25T01:04:58.672Z,7.14
2023-04-25T01:06:00.090Z,7.12
2023-04-25T01:07:01.582Z,7.12
2023-04-25T01:08:03.406Z,7.11
2023-04-25T01:09:05.814Z,7.11
2023-04-25T01:10:07.663Z,7.11
2023-04-25T01:11:09.174Z,7.07
2023-04-25T01:12:10.792Z,7.06
2023-04-25T01:13:12.504Z,7.07
2023-04-25T01:14:13.956Z,7.07
2023-04-25T01:15:15.440Z,7.06
2023-04-25T01:16:17.040Z,7.07
2023-04-25T01:17:18.727Z,7.06
2023-04-25T01:18:21.472Z,7.06
2023-04-25T01:19:22.969Z,7.06
2023-04-25T01:20:25.873Z,7.06
2023-04-25T01:21:29.146Z,7.05
2023-04-25T01:22:30.589Z,7.04
2023-04-25T01:23:34.233Z,7.05
2023-04-25T01:24:38.533Z,7.04
2023-04-25T01:25:40.378Z,7.05
2023-04-25T01:26:45.287Z,7.04
2023-04-25T01:27:47.530Z,7.01
2023-04-25T01:28:49.667Z,7.01
2023-04-25T01:29:51.555Z,6.99
2023-04-25T01:30:53.460Z,6.98
2023-04-25T01:31:56.265Z,6.96
2023-04-25T01:32:58.607Z,6.96
2023-04-25T01:34:00.170Z,6.95
2023-04-25T01:35:03.912Z,6.94
2023-04-25T01:36:05.797Z,6.91
2023-04-25T01:37:07.582Z,6.89
2023-04-25T01:38:09.335Z,6.88
2023-04-25T01:39:10.995Z,6.86
2023-04-25T01:40:13.682Z,6.85
2023-04-25T01:41:15.436Z,6.82
2023-04-25T01:42:19.285Z,6.79
2023-04-25T01:43:20.690Z,6.79
2023-04-25T01:44:22.237Z,6.78
2023-04-25T01:45:23.689Z,6.77
2023-04-25T01:46:26.856Z,6.74
2023-04-25T01:47:30.066Z,6.73
2023-04-25T01:48:32.912Z,6.71
2023-04-25T01:49:34.895Z,6.70
2023-04-25T01:50:36.473Z,6.67
2023-04-25T01:51:37.935Z,6.68
2023-04-25T01:52:39.626Z,6.66
2023-04-25T01:53:41.688Z,6.66
2023-04-25T01:54:45.680Z,6.65
2023-04-25T01:55:48.618Z,6.63
2023-04-25T01:56:52.914Z,6.62
2023-04-25T01:57:56.175Z,6.61
2023-04-25T01:59:07.238Z,6.61
2023-04-25T02:00:25.045Z,6.61
2023-04-25T02:01:26.661Z,6.61
2023-04-25T02:02:46.313Z,6.62
2023-04-25T02:04:02.532Z,6.63
2023-04-25T02:05:09.690Z,6.63
2023-04-25T02:06:14.563Z,6.62
2023-04-25T02:07:19.406Z,6.63
2023-04-25T02:08:27.871Z,6.61
2023-04-25T02:09:30.835Z,6.61
2023-04-25T02:10:34.194Z,6.61
2023-04-25T02:11:53.846Z,6.60
2023-04-25T02:13:25.504Z,6.60
2023-04-25T02:14:39.532Z,6.60
2023-04-25T02:15:48.313Z,6.58
2023-04-25T02:16:52.285Z,6.58
2023-04-25T02:17:54.761Z,6.57
2023-04-25T02:18:56.254Z,6.57
2023-04-25T02:19:57.777Z,6.56
2023-04-25T02:21:00.139Z,6.56
2023-04-25T02:22:02.279Z,6.54
2023-04-25T02:23:04.029Z,6.53
2023-04-25T02:24:06.425Z,6.52
2023-04-25T02:25:10.098Z,6.52
2023-04-25T02:26:14.292Z,6.50
2023-04-25T02:27:16.971Z,6.49
2023-04-25T02:28:18.553Z,6.48
2023-04-25T02:29:20.006Z,6.46
2023-04-25T02:30:21.560Z,6.44
2023-04-25T02:31:23.088Z,6.40
2023-04-25T02:32:26.745Z,6.37
2023-04-25T02:33:28.343Z,6.33
2023-04-25T02:34:29.762Z,6.31
2023-04-25T02:35:31.626Z,6.31
2023-04-25T02:36:35.208Z,6.29
2023-04-25T02:37:37.538Z,6.28
2023-04-25T02:38:39.197Z,6.28
2023-04-25T02:39:40.648Z,6.28
2023-04-25T02:40:42.066Z,6.27
2023-04-25T02:41:43.473Z,6.25
2023-04-25T02:42:46.873Z,6.23
2023-04-25T02:43:49.074Z,6.22
2023-04-25T02:44:55.817Z,6.20
2023-04-25T02:45:57.824Z,6.19
2023-04-25T02:46:59.311Z,6.19
2023-04-25T02:48:01.354Z,6.18
2023-04-25T02:49:02.957Z,6.18
2023-04-25T02:50:05.577Z,6.16
2023-04-25T02:51:07.011Z,6.15
2023-04-25T02:52:08.679Z,6.15
2023-04-25T02:53:10.371Z,6.13
2023-04-25T02:54:19.465Z,6.11
2023-04-25T02:55:24.289Z,6.10
2023-04-25T02:56:27.464Z,6.09
2023-04-25T02:57:28.932Z,6.07
2023-04-25T02:58:31.564Z,6.05
2023-04-25T02:59:33.204Z,6.04
2023-04-25T03:00:34.777Z,6.02
2023-04-25T03:01:36.595Z,6.01
2023-04-25T03:02:38.251Z,5.98
2023-04-25T03:03:39.887Z,5.97
2023-04-25T03:04:41.518Z,5.97
2023-04-25T03:05:43.914Z,5.94
2023-04-25T03:06:45.640Z,5.93
2023-04-25T03:07:47.915Z,5.92
2023-04-25T03:08:51.329Z,5.90
2023-04-25T03:09:52.757Z,5.90
2023-04-25T03:10:56.597Z,5.89
2023-04-25T03:11:58.202Z,5.87
2023-04-25T03:12:59.973Z,5.87
2023-04-25T03:14:01.545Z,5.86
2023-04-25T03:15:03.555Z,5.83
2023-04-25T03:16:05.526Z,5.84
2023-04-25T03:17:07.003Z,5.85
2023-04-25T03:18:10.494Z,5.84
2023-04-25T03:19:11.976Z,5.83
2023-04-25T03:20:13.423Z,5.82
2023-04-25T03:21:14.854Z,5.81
2023-04-25T03:22:16.489Z,5.80
2023-04-25T03:23:17.907Z,5.80
2023-04-25T03:24:20.400Z,5.79
2023-04-25T03:25:22.014Z,5.79
2023-04-25T03:26:24.008Z,5.79
2023-04-25T03:27:25.685Z,5.79
2023-04-25T03:28:27.517Z,5.78
2023-04-25T03:29:30.646Z,5.78
2023-04-25T03:30:34.327Z,5.77
2023-04-25T03:31:36.080Z,5.77
2023-04-25T03:32:38.287Z,5.76
2023-04-25T03:33:42.051Z,5.76
2023-04-25T03:34:44.230Z,5.75
2023-04-25T03:35:45.873Z,5.75
2023-04-25T03:36:48.706Z,5.73
2023-04-25T03:37:50.353Z,5.74
2023-04-25T03:38:57.513Z,5.73
2023-04-25T03:39:59.119Z,5.73
2023-04-25T03:41:08.530Z,5.71
2023-04-25T03:42:17.620Z,5.69
2023-04-25T03:43:20.192Z,5.68
2023-04-25T03:44:27.852Z,5.65
2023-04-25T03:45:29.475Z,5.65
2023-04-25T03:46:31.437Z,5.62
2023-04-25T03:47:33.535Z,5.62
2023-04-25T03:48:34.981Z,5.60
2023-04-25T03:49:37.339Z,5.59
2023-04-25T03:50:40.896Z,5.59
2023-04-25T03:51:42.523Z,5.59
2023-04-25T03:52:44.500Z,5.58
2023-04-25T03:53:46.838Z,5.58
2023-04-25T03:54:51.014Z,5.57
2023-04-25T03:55:54.994Z,5.56
2023-04-25T03:56:56.572Z,5.56
2023-04-25T03:58:01.643Z,5.55
2023-04-25T03:59:04.444Z,5.53
2023-04-25T04:00:07.591Z,5.53
2023-04-25T04:01:17.710Z,5.51
2023-04-25T04:02:19.360Z,5.50
2023-04-25T04:03:21.755Z,5.50
2023-04-25T04:04:24.017Z,5.50
2023-04-25T04:05:26.776Z,5.50
2023-04-25T04:06:31.118Z,5.50
2023-04-25T04:07:44.348Z,5.50
2023-04-25T04:08:47.495Z,5.50
2023-04-25T04:09:48.913Z,5.50
2023-04-25T04:10:58.608Z,5.50
2023-04-25T04:12:02.524Z,5.51
2023-04-25T04:13:06.922Z,5.51
2023-04-25T04:14:09.110Z,5.50
2023-04-25T04:15:13.583Z,5.51
2023-04-25T04:16:15.885Z,5.51
2023-04-25T04:17:17.589Z,5.52
2023-04-25T04:18:19.204Z,5.52
2023-04-25T04:19:21.366Z,5.51
2023-04-25T04:20:31.693Z,5.52
2023-04-25T04:21:34.438Z,5.53
2023-04-25T04:22:37.213Z,5.52
2023-04-25T04:23:43.032Z,5.53
2023-04-25T04:24:47.465Z,5.54
2023-04-25T04:25:53.560Z,5.54
2023-04-25T04:27:13.662Z,5.54
2023-04-25T04:28:29.052Z,5.54
2023-04-25T04:29:35.909Z,5.54
2023-04-25T04:30:49.309Z,5.54
2023-04-25T04:31:51.801Z,5.54
2023-04-25T04:32:53.586Z,5.54
2023-04-25T04:33:56.538Z,5.52
2023-04-25T04:34:58.285Z,5.51
2023-04-25T04:36:01.841Z,5.52
2023-04-25T04:37:03.733Z,5.52
2023-04-25T04:38:05.338Z,5.52
2023-04-25T04:39:10.202Z,5.53
2023-04-25T04:40:24.219Z,5.53
2023-04-25T04:41:29.989Z,5.54
2023-04-25T04:42:46.322Z,5.53
2023-04-25T04:44:11.644Z,5.55
2023-04-25T04:45:40.106Z,5.55
2023-04-25T04:47:07.656Z,5.55
2023-04-25T04:48:23.877Z,5.55
2023-04-25T04:49:47.388Z,5.55
2023-04-25T04:51:06.146Z,5.56
2023-04-25T04:52:19.728Z,5.55
2023-04-25T04:53:31.245Z,5.56
2023-04-25T04:55:05.398Z,5.55
2023-04-25T04:56:36.290Z,5.55
2023-04-25T04:57:52.065Z,5.55
2023-04-25T04:59:13.756Z,5.55
2023-04-25T05:00:35.357Z,5.53
2023-04-25T05:01:59.751Z,5.54
2023-04-25T05:03:20.282Z,5.55
2023-04-25T05:04:57.798Z,5.57
2023-04-25T05:06:09.816Z,5.58
2023-04-25T05:07:43.461Z,5.59
2023-04-25T05:09:05.054Z,5.60
2023-04-25T05:10:26.875Z,5.61
2023-04-25T05:11:39.945Z,5.61
2023-04-25T05:12:56.569Z,5.63
2023-04-25T05:14:17.915Z,5.63
2023-04-25T05:15:37.866Z,5.63
2023-04-25T05:16:57.902Z,5.66
2023-04-25T05:18:22.408Z,5.67
2023-04-25T05:19:47.033Z,5.68
2023-04-25T05:21:07.021Z,5.64
2023-04-25T05:22:31.607Z,5.65
2023-04-25T05:23:51.950Z,5.65
2023-04-25T05:25:12.856Z,5.65
2023-04-25T05:26:33.784Z,5.65
2023-04-25T05:27:42.464Z,5.67
2023-04-25T05:29:04.372Z,5.65
2023-04-25T05:30:29.418Z,5.66
2023-04-25T05:31:41.349Z,5.63
2023-04-25T05:32:47.878Z,5.62
2023-04-25T05:33:49.774Z,5.57
2023-04-25T05:34:53.251Z,5.55
2023-04-25T05:35:59.693Z,5.53
2023-04-25T05:37:04.324Z,5.52
2023-04-25T05:38:07.717Z,5.51
2023-04-25T05:39:28.241Z,5.48
2023-04-25T05:40:48.681Z,5.50
2023-04-25T05:42:08.894Z,5.47
2023-04-25T05:43:22.661Z,5.46
2023-04-25T05:44:50.230Z,5.46
2023-04-25T05:46:20.840Z,5.46
2023-04-25T05:48:04.053Z,5.46
2023-04-25T05:49:19.609Z,5.45
2023-04-25T05:50:39.791Z,5.45
2023-04-25T05:52:04.772Z,5.47
2023-04-25T05:53:23.108Z,5.48
2023-04-25T05:54:31.516Z,5.50
2023-04-25T05:55:32.974Z,5.52
2023-04-25T05:56:37.446Z,5.52
2023-04-25T05:57:42.681Z,5.53
2023-04-25T05:58:45.213Z,5.54
2023-04-25T05:59:47.802Z,5.54
2023-04-25T06:00:49.749Z,5.55
2023-04-25T06:01:52.682Z,5.57
2023-04-25T06:02:56.024Z,5.59
2023-04-25T06:03:58.830Z,5.62
2023-04-25T06:05:01.106Z,5.63
2023-04-25T06:06:03.468Z,5.66
2023-04-25T06:07:05.516Z,5.69
2023-04-25T06:08:07.778Z,5.71
2023-04-25T06:09:09.387Z,5.73
2023-04-25T06:10:10.872Z,5.74
2023-04-25T06:11:13.404Z,5.76
2023-04-25T06:12:15.003Z,5.79
2023-04-25T06:13:16.859Z,5.82
2023-04-25T06:14:18.562Z,5.84
2023-04-25T06:15:28.654Z,5.86
2023-04-25T06:16:36.458Z,5.88
2023-04-25T06:17:38.067Z,5.91
2023-04-25T06:18:41.458Z,5.92
2023-04-25T06:19:44.612Z,5.94
2023-04-25T06:20:47.402Z,5.95
2023-04-25T06:21:49.092Z,5.96
2023-04-25T06:22:50.974Z,5.96
2023-04-25T06:23:52.996Z,5.96
2023-04-25T06:24:59.823Z,5.97
2023-04-25T06:26:01.333Z,5.97
2023-04-25T06:27:03.792Z,5.99
2023-04-25T06:28:05.598Z,6.01
2023-04-25T06:29:07.460Z,6.01
2023-04-25T06:30:09.466Z,6.04
2023-04-25T06:31:10.983Z,6.05
2023-04-25T06:32:12.806Z,6.07
2023-04-25T06:33:14.366Z,6.09
2023-04-25T06:34:17.019Z,6.10
2023-04-25T06:35:18.519Z,6.11
2023-04-25T06:36:21.799Z,6.13
2023-04-25T06:37:25.428Z,6.15
2023-04-25T06:38:27.530Z,6.17
2023-04-25T06:39:31.624Z,6.18
2023-04-25T06:40:33.098Z,6.20
2023-04-25T06:41:34.924Z,6.23
2023-04-25T06:42:38.195Z,6.25
2023-04-25T06:43:59.801Z,6.29
2023-04-25T06:45:08.271Z,6.32
2023-04-25T06:46:10.725Z,6.35
2023-04-25T06:47:17.823Z,6.38
2023-04-25T06:48:19.389Z,6.36
2023-04-25T06:49:21.124Z,6.39
2023-04-25T06:50:22.766Z,6.40
2023-04-25T06:51:25.491Z,6.41
2023-04-25T06:52:29.212Z,6.44
2023-04-25T06:53:30.840Z,6.45
2023-04-25T06:54:35.914Z,6.47
2023-04-25T06:55:48.964Z,6.53
2023-04-25T06:56:53.954Z,6.55
2023-04-25T06:57:55.915Z,6.57
2023-04-25T06:59:16.670Z,6.59
2023-04-25T07:00:21.369Z,6.61
2023-04-25T07:01:23.043Z,6.63
2023-04-25T07:02:24.949Z,6.66
2023-04-25T07:03:28.723Z,6.69
2023-04-25T07:04:35.203Z,6.66
2023-04-25T07:05:37.751Z,6.67
2023-04-25T07:06:43.464Z,6.71
2023-04-25T07:07:46.567Z,6.73
2023-04-25T07:08:48.604Z,6.78
2023-04-25T07:09:50.340Z,6.81
2023-04-25T07:10:51.809Z,6.88
2023-04-25T07:11:53.375Z,6.93
2023-04-25T07:12:55.292Z,6.96
2023-04-25T07:13:57.562Z,7.01
2023-04-25T07:14:59.068Z,7.04
2023-04-25T07:16:00.797Z,7.08
2023-04-25T07:17:04.001Z,7.09
2023-04-25T07:18:07.529Z,7.08
2023-04-25T07:19:09.178Z,7.09
2023-04-25T07:20:11.292Z,7.11
2023-04-25T07:21:12.793Z,7.11
2023-04-25T07:22:15.402Z,7.16
2023-04-25T07:23:17.860Z,7.19
2023-04-25T07:24:19.781Z,7.21
2023-04-25T07:25:22.694Z,7.25
2023-04-25T07:26:24.702Z,7.29
2023-04-25T07:27:50.996Z,7.32
2023-04-25T07:28:55.642Z,7.34
2023-04-25T07:29:57.276Z,7.37
2023-04-25T07:30:59.293Z,7.39
2023-04-25T07:32:00.861Z,7.41
2023-04-25T07:33:02.930Z,7.42
2023-04-25T07:34:05.544Z,7.44
2023-04-25T07:35:08.333Z,7.48
2023-04-25T07:36:10.387Z,7.49
2023-04-25T07:37:11.955Z,7.50
2023-04-25T07:38:26.414Z,7.55
2023-04-25T07:39:28.016Z,7.57
2023-04-25T07:40:29.742Z,7.58
2023-04-25T07:41:36.941Z,7.62
2023-04-25T07:42:38.622Z,7.63
2023-04-25T07:43:41.535Z,7.63
2023-04-25T07:44:43.417Z,7.61
2023-04-25T07:45:47.515Z,7.56
2023-04-25T07:46:51.601Z,7.52
2023-04-25T07:47:53.278Z,7.52
2023-04-25T07:48:55.308Z,7.53
2023-04-25T07:49:58.752Z,7.54
2023-04-25T07:51:00.273Z,7.55
2023-04-25T07:52:02.753Z,7.55
2023-04-25T07:53:04.902Z,7.59
2023-04-25T07:54:13.553Z,7.64
2023-04-25T07:55:19.843Z,7.59
2023-04-25T07:56:45.226Z,7.62
2023-04-25T07:57:53.967Z,7.65
2023-04-25T07:58:55.967Z,7.69
2023-04-25T07:59:59.591Z,7.72
2023-04-25T08:01:01.708Z,7.75
2023-04-25T08:02:17.710Z,7.82
2023-04-25T08:03:20.225Z,7.86
2023-04-25T08:04:22.735Z,7.92
2023-04-25T08:05:37.824Z,7.99
2023-04-25T08:06:41.677Z,8.05
2023-04-25T08:07:48.671Z,8.10
2023-04-25T08:08:50.471Z,8.16
2023-04-25T08:09:55.348Z,8.23
2023-04-25T08:11:07.966Z,8.30
2023-04-25T08:12:09.636Z,8.35
2023-04-25T08:13:11.617Z,8.39
2023-04-25T08:14:14.889Z,8.42
2023-04-25T08:15:18.114Z,8.47
2023-04-25T08:16:19.798Z,8.50
2023-04-25T08:17:21.713Z,8.52
2023-04-25T08:18:23.312Z,8.54
2023-04-25T08:19:26.228Z,8.56
2023-04-25T08:20:27.829Z,8.58
2023-04-25T08:21:32.477Z,8.61
2023-04-25T08:22:38.952Z,8.63
2023-04-25T08:23:53.924Z,8.64
2023-04-25T08:25:02.645Z,8.61
2023-04-25T08:26:04.353Z,8.59
2023-04-25T08:27:16.013Z,8.56
2023-04-25T08:28:17.860Z,8.53
2023-04-25T08:30:33.322Z,8.51
2023-04-25T08:31:41.683Z,8.48
2023-04-25T08:32:44.066Z,8.46
2023-04-25T08:34:04.167Z,8.46
2023-04-25T08:35:18.488Z,8.41
2023-04-25T08:36:35.208Z,8.37
2023-04-25T08:37:43.609Z,8.39
2023-04-25T08:38:49.416Z,8.39
2023-04-25T08:39:54.377Z,8.43
2023-04-25T08:41:14.793Z,8.47
2023-04-25T08:42:16.492Z,8.54
2023-04-25T08:43:20.037Z,8.57
2023-04-25T08:44:21.842Z,8.64
2023-04-25T08:45:23.430Z,8.74
2023-04-25T08:46:25.820Z,8.83
2023-04-25T08:47:42.669Z,8.94
2023-04-25T08:48:45.751Z,9.03
2023-04-25T08:49:47.985Z,9.07
2023-04-25T08:50:54.121Z,9.14
2023-04-25T08:51:59.890Z,9.21
2023-04-25T08:53:04.952Z,9.26
2023-04-25T08:54:19.084Z,9.30
2023-04-25T08:55:32.281Z,9.35
2023-04-25T08:56:35.979Z,9.34
2023-04-25T08:57:38.436Z,9.26
2023-04-25T08:58:40.403Z,9.22
2023-04-25T08:59:46.756Z,9.20
2023-04-25T09:00:52.432Z,9.21
2023-04-25T09:01:56.404Z,9.19
2023-04-25T09:02:59.689Z,9.16
2023-04-25T09:04:05.335Z,9.14
2023-04-25T09:05:11.022Z,9.12
2023-04-25T09:06:12.777Z,9.10
2023-04-25T09:07:16.692Z,9.07
2023-04-25T09:08:20.765Z,9.10
2023-04-25T09:09:22.794Z,9.14
2023-04-25T09:10:24.354Z,9.14
2023-04-25T09:11:27.418Z,9.14
2023-04-25T09:12:30.282Z,9.17
2023-04-25T09:13:31.877Z,9.22
2023-04-25T09:15:20.721Z,9.26
2023-04-25T09:16:23.234Z,9.32
2023-04-25T09:17:45.650Z,9.38
2023-04-25T09:18:49.087Z,9.35
2023-04-25T09:19:52.063Z,9.37
2023-04-25T09:21:13.598Z,9.23
2023-04-25T09:22:19.333Z,9.23
2023-04-25T09:23:22.255Z,9.23
2023-04-25T09:24:31.607Z,9.26
2023-04-25T09:25:39.760Z,9.32
2023-04-25T09:26:42.911Z,9.39
2023-04-25T09:27:55.292Z,9.44
2023-04-25T09:29:08.258Z,9.50
2023-04-25T09:30:13.308Z,9.54
2023-04-25T09:31:33.903Z,9.57
2023-04-25T09:32:37.208Z,9.62
2023-04-25T09:33:39.710Z,9.63
2023-04-25T09:34:43.681Z,9.65
2023-04-25T09:35:56.382Z,9.62
2023-04-25T09:37:38.484Z,9.61
2023-04-25T09:39:00.754Z,9.62
2023-04-25T09:40:06.883Z,9.62
2023-04-25T09:41:11.567Z,9.64
2023-04-25T09:42:17.863Z,9.63
2023-04-25T09:43:19.511Z,9.62
2023-04-25T09:44:25.010Z,9.65
2023-04-25T09:45:30.346Z,9.68
2023-04-25T09:46:37.445Z,9.70
2023-04-25T09:47:41.760Z,9.72
2023-04-25T09:48:49.657Z,9.75
2023-04-25T09:49:52.999Z,9.80
2023-04-25T09:51:07.537Z,9.83
2023-04-25T09:52:10.734Z,9.88
2023-04-25T09:53:22.361Z,9.87
2023-04-25T09:54:36.067Z,9.87
2023-04-25T09:55:46.024Z,9.86
2023-04-25T09:56:49.238Z,9.86
2023-04-25T09:57:52.775Z,9.86
2023-04-25T09:58:55.646Z,9.77
2023-04-25T09:59:57.112Z,9.75
2023-04-25T10:01:01.895Z,9.73
2023-04-25T10:02:13.585Z,9.79
2023-04-25T10:03:16.844Z,9.85
2023-04-25T10:04:35.467Z,9.92
2023-04-25T10:05:42.260Z,10.01
2023-04-25T10:06:44.414Z,10.09
2023-04-25T10:07:46.136Z,10.15
2023-04-25T10:08:52.281Z,10.20
2023-04-25T10:09:56.426Z,10.24
2023-04-25T10:10:59.618Z,10.35
2023-04-25T10:12:01.461Z,10.42
2023-04-25T10:13:04.683Z,10.43
2023-04-25T10:14:06.809Z,10.42
2023-04-25T10:15:09.986Z,10.42
2023-04-25T10:16:12.851Z,10.38
2023-04-25T10:17:14.841Z,10.34
2023-04-25T10:18:19.334Z,10.32
2023-04-25T10:19:21.436Z,10.22
2023-04-25T10:20:23.464Z,10.15
2023-04-25T10:21:25.371Z,10.05
2023-04-25T10:22:37.872Z,9.88
2023-04-25T10:23:39.820Z,9.71
2023-04-25T10:24:41.891Z,9.55
2023-04-25T10:25:46.129Z,9.37
2023-04-25T10:26:48.364Z,9.21
2023-04-25T10:27:53.657Z,9.09
2023-04-25T10:29:04.542Z,8.99
2023-04-25T10:30:09.996Z,8.81
2023-04-25T10:31:11.616Z,8.70
2023-04-25T10:32:13.377Z,8.60
2023-04-25T10:33:19.617Z,8.55
2023-04-25T10:34:24.865Z,8.52
2023-04-25T10:35:27.958Z,8.50
2023-04-25T10:36:32.551Z,8.48
2023-04-25T10:37:33.997Z,8.47
2023-04-25T10:38:35.431Z,8.50
2023-04-25T10:39:36.929Z,8.51
2023-04-25T10:40:38.495Z,8.51
2023-04-25T10:41:52.822Z,8.52
2023-04-25T10:42:55.721Z,8.60
2023-04-25T10:44:02.284Z,8.63
2023-04-25T10:45:07.494Z,8.67
2023-04-25T10:46:19.100Z,8.72
2023-04-25T10:47:35.510Z,8.80
2023-04-25T10:48:37.095Z,8.85
2023-04-25T10:49:42.087Z,8.91
2023-04-25T10:50:43.498Z,8.96
2023-04-25T10:52:52.771Z,9.05
2023-04-25T10:53:58.585Z,9.12
2023-04-25T10:55:00.049Z,9.11
2023-04-25T10:56:01.596Z,9.13
2023-04-25T10:57:03.530Z,9.05
2023-04-25T10:58:04.931Z,9.00
2023-04-25T10:59:07.963Z,9.00
2023-04-25T11:00:16.514Z,9.00
2023-04-25T11:01:26.262Z,9.00
2023-04-25T11:02:29.710Z,8.97
2023-04-25T11:03:31.934Z,8.90
2023-04-25T11:04:37.446Z,8.92
2023-04-25T11:05:55.160Z,8.98
2023-04-25T11:07:06.886Z,9.07
2023-04-25T11:08:12.213Z,9.16
2023-04-25T11:09:14.459Z,9.22
2023-04-25T11:10:16.132Z,9.28
2023-04-25T11:11:20.928Z,9.35
2023-04-25T11:12:22.393Z,9.40
2023-04-25T11:13:23.807Z,9.45
2023-04-25T11:14:25.919Z,9.50
2023-04-25T11:15:29.464Z,9.56
2023-04-25T11:16:32.121Z,9.61
2023-04-25T11:17:34.227Z,9.64
2023-04-25T11:18:35.880Z,9.68
2023-04-25T11:19:37.350Z,9.74
2023-04-25T11:20:38.839Z,9.83
2023-04-25T11:21:40.356Z,9.92
2023-04-25T11:22:42.369Z,9.98
2023-04-25T11:23:46.373Z,10.03
2023-04-25T11:24:47.900Z,10.08
2023-04-25T11:25:50.145Z,10.10
2023-04-25T11:26:51.684Z,10.08
2023-04-25T11:27:53.211Z,10.03
2023-04-25T11:28:58.552Z,9.97
2023-04-25T11:30:00.366Z,9.87
2023-04-25T11:31:03.548Z,9.79
2023-04-25T11:32:05.337Z,9.72
2023-04-25T11:33:06.867Z,9.66
2023-04-25T11:34:11.148Z,9.59
2023-04-25T11:35:12.793Z,9.45
2023-04-25T11:36:14.778Z,9.31
2023-04-25T11:37:16.516Z,9.21
2023-04-25T11:38:18.266Z,9.12
2023-04-25T11:39:20.478Z,9.00
2023-04-25T11:40:21.959Z,8.91
2023-04-25T11:41:23.613Z,8.85
2023-04-25T11:42:25.392Z,8.78
2023-04-25T11:43:26.851Z,8.70
2023-04-25T11:44:31.574Z,8.64
2023-04-25T11:45:33.163Z,8.60
2023-04-25T11:46:35.774Z,8.57
2023-04-25T11:47:37.890Z,8.47
2023-04-25T11:48:40.112Z,8.45
2023-04-25T11:49:41.558Z,8.44
2023-04-25T11:50:43.124Z,8.45
2023-04-25T11:51:45.615Z,8.46
2023-04-25T11:52:47.798Z,8.46
2023-04-25T11:53:49.418Z,8.47
2023-04-25T11:54:50.803Z,8.48
2023-04-25T11:55:52.410Z,8.42
2023-04-25T11:56:53.811Z,8.46
2023-04-25T11:57:55.533Z,8.50
2023-04-25T11:59:02.013Z,8.53
2023-04-25T12:00:08.376Z,8.56
2023-04-25T12:01:13.543Z,8.57
2023-04-25T12:02:27.899Z,8.61
2023-04-25T12:03:32.353Z,8.66
2023-04-25T12:04:34.172Z,8.70
2023-04-25T12:05:36.676Z,8.76
2023-04-25T12:06:41.603Z,8.70
2023-04-25T12:07:43.696Z,8.68
2023-04-25T12:09:05.208Z,8.69
2023-04-25T12:10:08.225Z,8.71
2023-04-25T12:11:21.353Z,8.71
2023-04-25T12:12:22.767Z,8.68
2023-04-25T12:13:25.642Z,8.67
2023-04-25T12:14:29.790Z,8.66
2023-04-25T12:15:34.491Z,8.70
2023-04-25T12:16:42.939Z,8.75
2023-04-25T12:17:48.180Z,8.85
2023-04-25T12:18:52.882Z,8.95
2023-04-25T12:19:54.653Z,9.01
2023-04-25T12:20:56.252Z,9.06
2023-04-25T12:21:59.377Z,9.13
2023-04-25T12:23:01.299Z,9.16
2023-04-25T12:24:13.891Z,9.19
2023-04-25T12:25:35.179Z,9.16
2023-04-25T12:27:00.190Z,9.13
2023-04-25T12:28:12.854Z,9.11
2023-04-25T12:29:21.188Z,9.11
2023-04-25T12:30:22.651Z,9.05
2023-04-25T12:31:24.410Z,9.03
2023-04-25T12:32:27.437Z,9.02
2023-04-25T12:33:29.895Z,9.06
2023-04-25T12:34:33.265Z,9.06
2023-04-25T12:35:34.952Z,9.10
2023-04-25T12:36:36.561Z,9.16
2023-04-25T12:37:38.006Z,9.20
2023-04-25T12:38:40.971Z,9.23
2023-04-25T12:39:42.410Z,9.24
2023-04-25T12:40:43.829Z,9.28
2023-04-25T12:41:45.488Z,9.30
2023-04-25T12:42:47.251Z,9.26
2023-04-25T12:43:48.832Z,9.16
2023-04-25T12:44:50.462Z,9.11
2023-04-25T12:45:52.818Z,9.09
2023-04-25T12:46:55.552Z,9.06
2023-04-25T12:47:57.052Z,9.01
2023-04-25T12:49:05.341Z,9.03
2023-04-25T12:50:13.525Z,9.09
2023-04-25T12:51:15.003Z,9.12
2023-04-25T12:52:16.460Z,9.16
2023-04-25T12:53:18.501Z,9.16
2023-04-25T12:54:19.964Z,9.14
2023-04-25T12:55:21.379Z,9.13
2023-04-25T12:56:24.630Z,9.12
2023-04-25T12:57:27.145Z,9.12
2023-04-25T12:58:28.583Z,9.13
2023-04-25T12:59:30.166Z,9.14
2023-04-25T13:00:32.846Z,9.13
2023-04-25T13:01:35.716Z,9.11
2023-04-25T13:02:38.777Z,9.12
2023-04-25T13:03:40.757Z,9.13
2023-04-25T13:04:42.337Z,9.07
2023-04-25T13:05:43.831Z,9.04
2023-04-25T13:06:45.552Z,9.06
2023-04-25T13:07:46.987Z,9.09
2023-04-25T13:08:49.335Z,9.13
2023-04-25T13:09:51.058Z,9.18
2023-04-25T13:10:52.515Z,9.26
2023-04-25T13:11:56.262Z,9.34
2023-04-25T13:12:59.851Z,9.39
2023-04-25T13:14:02.000Z,9.46
2023-04-25T13:15:03.567Z,9.55
2023-04-25T13:16:05.664Z,9.63
2023-04-25T13:17:07.562Z,9.65
2023-04-25T13:18:09.329Z,9.64
2023-04-25T13:19:12.517Z,9.67
2023-04-25T13:20:15.894Z,9.76
2023-04-25T13:21:17.352Z,9.78
2023-04-25T13:22:21.047Z,9.81
2023-04-25T13:23:23.521Z,9.84
2023-04-25T13:24:24.963Z,9.88
2023-04-25T13:25:26.386Z,9.95
2023-04-25T13:26:27.810Z,10.03
2023-04-25T13:27:29.809Z,10.13
2023-04-25T13:28:31.555Z,10.27
2023-04-25T13:29:35.694Z,10.34
2023-04-25T13:30:37.205Z,10.44
2023-04-25T13:31:38.703Z,10.46
2023-04-25T13:32:40.640Z,10.47
2023-04-25T13:33:42.169Z,10.51
2023-04-25T13:34:43.800Z,10.59
2023-04-25T13:35:47.908Z,10.65
2023-04-25T13:36:49.535Z,10.66
2023-04-25T13:37:51.247Z,10.68
2023-04-25T13:38:52.691Z,10.76
2023-04-25T13:39:56.313Z,10.86
2023-04-25T13:40:57.868Z,10.91
2023-04-25T13:41:59.438Z,10.90
2023-04-25T13:43:01.043Z,10.93
2023-04-25T13:44:02.647Z,10.97
2023-04-25T13:45:04.332Z,11.00
2023-04-25T13:46:05.809Z,11.08
2023-04-25T13:47:07.543Z,11.14
2023-04-25T13:48:09.367Z,11.20
2023-04-25T13:49:13.268Z,11.20
2023-04-25T13:50:15.727Z,11.19
2023-04-25T13:51:18.545Z,11.16
2023-04-25T13:52:20.150Z,11.14
2023-04-25T13:53:22.117Z,11.07
2023-04-25T13:54:24.033Z,11.06
2023-04-25T13:55:25.787Z,11.03
2023-04-25T13:56:27.228Z,11.06
2023-04-25T13:57:28.668Z,11.10
2023-04-25T13:58:30.211Z,11.08
2023-04-25T13:59:32.105Z,11.15
2023-04-25T14:00:33.824Z,11.17
2023-04-25T14:01:37.047Z,11.20
2023-04-25T14:02:39.178Z,11.17
2023-04-25T14:03:41.049Z,11.18
2023-04-25T14:04:42.710Z,11.14
2023-04-25T14:05:44.337Z,11.09
2023-04-25T14:06:46.621Z,11.07
2023-04-25T14:07:48.186Z,11.10
2023-04-25T14:08:50.436Z,11.14
2023-04-25T14:09:51.920Z,11.23
2023-04-25T14:10:53.359Z,11.28
2023-04-25T14:11:56.007Z,11.28
2023-04-25T14:12:57.416Z,11.23
2023-04-25T14:13:58.876Z,11.23
2023-04-25T14:15:00.382Z,11.09
2023-04-25T14:16:01.949Z,11.04
2023-04-25T14:17:04.033Z,10.96
2023-04-25T14:18:06.520Z,10.87
2023-04-25T14:19:07.942Z,10.75
2023-04-25T14:20:10.113Z,10.65
2023-04-25T14:21:11.729Z,10.52
2023-04-25T14:22:13.264Z,10.38
2023-04-25T14:23:15.073Z,10.30
2023-04-25T14:24:16.802Z,10.22
2023-04-25T14:25:18.279Z,10.09